Time;durP1;ratioP1;P1;durP2;ratioP2;P2;SDS_P1;SDS_P2;PMS_P1;PMS_P2;Temp;Humidity;BMP_temperature;BMP_pressure;BME280_temperature;BME280_humidity;BME280_pressure;Samples;Min_cycle;Max_cycle;Signal;HPM_P1;HPM_P2
2023/10/10 00:02:04;;;;;;;;;;;;;;;16.43;36.22;94153.09;4957694;28;19934;-79
2023/10/10 00:04:33;;;;;;;;;;;;;;;16.39;36.03;94153.00;4958417;28;19929;-79
2023/10/10 00:06:58;;;;;;;;;;;;;;;16.25;36.28;94134.56;4959860;28;20000;-78
2023/10/10 00:09:26;;;;;;;;;;;;;;;16.31;36.18;94152.03;4955694;28;19916;-78
2023/10/10 00:11:52;;;;;;;;;;;;;;;16.33;36.70;94156.28;4957796;28;20441;-78
2023/10/10 00:14:19;;;;;;;;;;;;;;;16.28;36.87;94159.94;4956687;28;19912;-79
2023/10/10 00:16:47;;;;;;;;;;;;;;;16.23;37.38;94155.56;4954297;28;19932;-78
2023/10/10 00:19:29;;;;;;;;;;;;;;;16.20;37.70;94156.25;4955616;28;20033;-78
2023/10/10 00:21:55;;;;;;;;;;;;;;;16.17;36.79;94140.84;4956056;28;19928;-76
2023/10/10 00:24:30;;;;;;;;;;;;;;;16.25;36.69;94142.59;4958598;28;19914;-79
2023/10/10 00:26:58;;;;;;;;;;;;;;;16.27;36.49;94143.06;4956257;28;20508;-79
2023/10/10 00:29:26;;;;;;;;;;;;;;;16.30;36.70;94136.22;4956749;28;19965;-80
2023/10/10 00:32:05;;;;;;;;;;;;;;;16.26;37.24;94141.50;4956553;28;19918;-79
2023/10/10 00:34:33;;;;;;;;;;;;;;;16.27;36.90;94132.31;4957552;28;19925;-79
2023/10/10 00:37:07;;;;;;;;;;;;;;;16.23;37.00;94128.75;4953339;28;20376;-79
2023/10/10 00:39:35;;;;;;;;;;;;;;;16.20;36.70;94140.16;4962563;28;20480;-79
2023/10/10 00:42:04;;;;;;;;;;;;;;;16.25;36.76;94131.88;4956402;28;20017;-80
2023/10/10 00:44:30;;;;;;;;;;;;;;;16.31;37.28;94135.91;4955194;28;20620;-79
2023/10/10 00:46:56;;;;;;;;;;;;;;;16.17;38.74;94132.03;4954739;28;19925;-76
2023/10/10 00:49:25;;;;;;;;;;;;;;;16.16;39.25;94133.91;4950591;28;20378;-80
2023/10/10 00:51:53;;;;;;;;;;;;;;;16.14;39.53;94130.78;4956799;28;20534;-78
2023/10/10 00:56:52;;;;;;;;;;;;;;;16.28;39.37;94147.28;4955471;28;19929;-79
2023/10/10 00:59:18;;;;;;;;;;;;;;;16.31;39.05;94146.66;4955052;28;19929;-78
2023/10/10 01:01:45;;;;;;;;;;;;;;;16.36;39.25;94147.53;4958438;28;19985;-79
2023/10/10 01:04:11;;;;;;;;;;;;;;;16.40;39.12;94137.66;4951355;28;19918;-78
2023/10/10 01:06:39;;;;;;;;;;;;;;;16.48;38.94;94134.81;4956723;28;20395;-79
2023/10/10 01:09:20;;;;;;;;;;;;;;;16.57;38.72;94132.03;4955957;28;20393;-78
2023/10/10 01:11:48;;;;;;;;;;;;;;;16.45;38.92;94129.38;4949375;28;19934;-78
2023/10/10 01:14:26;;;;;;;;;;;;;;;16.51;39.36;94126.09;4956375;28;19922;-77
2023/10/10 01:16:55;;;;;;;;;;;;;;;16.57;39.00;94129.34;4952345;28;19929;-79
2023/10/10 01:19:21;;;;;;;;;;;;;;;16.59;38.86;94119.00;4969302;28;19914;-79
2023/10/10 01:21:57;;;;;;;;;;;;;;;16.64;39.09;94121.44;4956949;28;19922;-79
2023/10/10 01:24:27;;;;;;;;;;;;;;;16.75;39.06;94117.16;4954189;28;20583;-79
2023/10/10 01:26:53;;;;;;;;;;;;;;;16.78;38.68;94124.50;4956558;28;20283;-78
2023/10/10 01:29:25;;;;;;;;;;;;;;;16.92;38.33;94126.78;4956618;28;19924;-78
2023/10/10 01:31:54;;;;;;;;;;;;;;;16.93;38.31;94118.38;4955869;28;19918;-77
2023/10/10 01:34:32;;;;;;;;;;;;;;;16.84;38.51;94125.81;4958905;28;19918;-79
2023/10/10 01:36:58;;;;;;;;;;;;;;;16.80;39.17;94133.00;4953071;28;19913;-78
2023/10/10 01:39:28;;;;;;;;;;;;;;;16.83;38.67;94132.31;4957935;28;20424;-76
2023/10/10 01:41:54;;;;;;;;;;;;;;;16.72;39.02;94140.09;4955838;28;19961;-79
2023/10/10 01:44:22;;;;;;;;;;;;;;;16.75;39.09;94146.69;4955395;28;20032;-80
2023/10/10 01:46:47;;;;;;;;;;;;;;;16.84;39.12;94146.53;4956557;28;19956;-79
2023/10/10 01:49:14;;;;;;;;;;;;;;;16.68;39.35;94141.13;4956753;28;20012;-80
2023/10/10 01:51:42;;;;;;;;;;;;;;;16.53;39.63;94147.22;4954113;28;19917;-80
2023/10/10 01:54:18;;;;;;;;;;;;;;;16.61;39.42;94149.78;4954885;28;19922;-79
2023/10/10 01:56:44;;;;;;;;;;;;;;;16.53;39.51;94147.22;4954234;28;19925;-78
2023/10/10 01:59:13;;;;;;;;;;;;;;;16.57;39.77;94148.13;4956894;28;19926;-80
2023/10/10 02:01:41;;;;;;;;;;;;;;;16.60;39.66;94142.84;4954993;28;20382;-80
2023/10/10 02:04:07;;;;;;;;;;;;;;;16.62;39.61;94150.56;4954273;28;20009;-78
2023/10/10 02:06:35;;;;;;;;;;;;;;;16.69;39.43;94148.06;4956437;28;20045;-79
2023/10/10 02:09:11;;;;;;;;;;;;;;;16.61;39.79;94143.63;4952237;28;20182;-79
2023/10/10 02:11:38;;;;;;;;;;;;;;;16.52;39.94;94151.06;4958885;28;19922;-79
2023/10/10 02:14:11;;;;;;;;;;;;;;;16.51;40.24;94149.50;4953495;28;20015;-80
2023/10/10 02:16:40;;;;;;;;;;;;;;;16.62;40.07;94158.63;4956695;28;19924;-79
2023/10/10 02:19:15;;;;;;;;;;;;;;;16.75;39.62;94155.53;4955131;28;19949;-79
2023/10/10 02:21:44;;;;;;;;;;;;;;;16.81;39.58;94174.88;4957316;28;19916;-79
2023/10/10 02:25:15;;;;;;;;;;;;;;;16.74;39.51;94171.97;4956529;28;19967;-78
2023/10/10 02:26:58;;;;;;;;;;;;;;;16.83;39.34;94172.59;4955728;28;20885;-79
2023/10/10 02:32:10;;;;;;;;;;;;;;;16.96;39.18;94159.91;4952872;28;19922;-76
2023/10/10 02:34:36;;;;;;;;;;;;;;;16.66;39.78;94148.75;4956717;28;20063;-79
2023/10/10 02:37:47;;;;;;;;;;;;;;;16.55;39.99;94145.00;4950899;28;19918;-79
2023/10/10 02:45:37;;;;;;;;;;;;;;;16.56;39.76;94141.97;4961487;28;19986;-80
2023/10/10 02:48:07;;;;;;;;;;;;;;;16.53;39.57;94144.53;4954694;28;19921;-79
2023/10/10 02:50:41;;;;;;;;;;;;;;;16.54;39.42;94138.06;4960425;28;20382;-79
2023/10/10 02:53:08;;;;;;;;;;;;;;;16.73;39.31;94135.50;4957123;28;20017;-78
2023/10/10 02:55:41;;;;;;;;;;;;;;;16.84;39.70;94133.88;4958803;28;20796;-79
2023/10/10 02:58:20;;;;;;;;;;;;;;;16.84;39.78;94131.19;4955331;28;20476;-79
2023/10/10 03:00:47;;;;;;;;;;;;;;;17.00;39.66;94128.53;4955589;28;20033;-79
2023/10/10 03:03:18;;;;;;;;;;;;;;;17.03;39.57;94139.38;4957362;28;19961;-79
2023/10/10 03:05:46;;;;;;;;;;;;;;;17.12;39.00;94142.66;4957337;28;19918;-79
2023/10/10 03:08:26;;;;;;;;;;;;;;;17.21;39.06;94150.59;4955811;28;19926;-77
2023/10/10 03:10:54;;;;;;;;;;;;;;;17.06;39.41;94135.97;4955219;28;20784;-79
2023/10/10 03:13:36;;;;;;;;;;;;;;;16.92;40.27;94132.16;4952101;28;20261;-79
2023/10/10 03:21:43;;;;;;;;;;;;;;;16.76;41.39;94129.47;4956966;28;19922;-79
2023/10/10 03:29:20;;;;;;;;;;;;;;;16.63;41.95;94142.16;4961674;28;19917;-80
2023/10/10 03:32:09;;;;;;;;;;;;;;;16.58;42.79;94128.97;4947845;28;19937;-76
2023/10/10 03:34:44;;;;;;;;;;;;;;;16.55;42.81;94155.72;4958816;28;19917;-78
2023/10/10 03:39:54;;;;;;;;;;;;;;;16.30;43.67;94150.44;4959097;28;20016;-78
2023/10/10 05:23:47;;;;;;;;;;;;;;;16.11;45.38;94232.66;4959158;28;19925;-79
2023/10/10 05:26:13;;;;;;;;;;;;;;;16.16;45.22;94230.50;4945036;28;20646;-76
2023/10/10 05:28:40;;;;;;;;;;;;;;;15.85;45.63;94235.66;4969189;28;20017;-80
2023/10/10 05:31:09;;;;;;;;;;;;;;;15.86;45.78;94240.72;4955643;28;20480;-77
2023/10/10 05:33:36;;;;;;;;;;;;;;;16.14;45.30;94245.38;4954612;28;19964;-76
2023/10/10 05:36:06;;;;;;;;;;;;;;;15.92;45.58;94243.16;4955869;28;20380;-79
2023/10/10 05:38:33;;;;;;;;;;;;;;;15.84;45.95;94250.22;4954037;28;19922;-76
2023/10/10 05:41:02;;;;;;;;;;;;;;;15.85;45.99;94257.13;4958120;28;19942;-78
2023/10/10 05:43:33;;;;;;;;;;;;;;;15.73;46.19;94255.25;4957532;28;20611;-79
2023/10/10 05:45:58;;;;;;;;;;;;;;;15.85;46.10;94249.06;4957764;28;19918;-79
2023/10/10 05:48:25;;;;;;;;;;;;;;;16.08;45.68;94255.59;4957452;28;19975;-80
2023/10/10 05:50:50;;;;;;;;;;;;;;;16.11;45.68;94252.22;4957842;28;20452;-79
2023/10/10 05:53:16;;;;;;;;;;;;;;;16.08;45.58;94258.25;4955673;28;20048;-78
2023/10/10 05:55:43;;;;;;;;;;;;;;;16.00;46.08;94269.88;4957855;28;19928;-78
2023/10/10 05:58:08;;;;;;;;;;;;;;;15.83;46.60;94264.75;4954404;28;20398;-77
2023/10/10 06:00:36;;;;;;;;;;;;;;;15.77;46.85;94272.22;4954520;28;19918;-77
2023/10/10 06:03:05;;;;;;;;;;;;;;;15.60;47.14;94272.41;4957262;28;20907;-76
2023/10/10 06:05:30;;;;;;;;;;;;;;;15.65;47.59;94269.50;4954191;28;19922;-77
2023/10/10 06:07:58;;;;;;;;;;;;;;;15.68;47.54;94257.34;4957422;28;19925;-77
2023/10/10 06:10:28;;;;;;;;;;;;;;;15.74;47.33;94261.38;4950299;28;19968;-77
2023/10/10 06:12:57;;;;;;;;;;;;;;;15.82;47.16;94260.50;4970574;28;19914;-78
2023/10/10 06:15:22;;;;;;;;;;;;;;;15.88;47.17;94253.78;4954010;28;19921;-77
2023/10/10 06:18:08;;;;;;;;;;;;;;;16.02;47.14;94254.22;4955084;28;19926;-75
2023/10/10 06:20:33;;;;;;;;;;;;;;;16.03;46.85;94255.03;4955946;28;19998;-78
2023/10/10 06:22:59;;;;;;;;;;;;;;;15.97;46.99;94243.72;4954033;28;20357;-76
2023/10/10 06:25:24;;;;;;;;;;;;;;;15.86;46.92;94250.66;4960316;28;19930;-78
2023/10/10 06:27:54;;;;;;;;;;;;;;;15.88;46.82;94243.84;4954133;28;19922;-77
2023/10/10 06:30:20;;;;;;;;;;;;;;;15.92;46.77;94245.84;4957814;28;19926;-76
2023/10/10 06:32:46;;;;;;;;;;;;;;;15.75;47.00;94236.91;4951549;28;19926;-77
2023/10/10 06:37:43;;;;;;;;;;;;;;;15.62;47.74;94253.31;4965225;28;20382;-76
2023/10/10 06:40:09;;;;;;;;;;;;;;;15.44;47.94;94263.47;4956318;28;20370;-78
2023/10/10 06:42:38;;;;;;;;;;;;;;;15.48;48.31;94259.00;4959833;28;20407;-76
2023/10/10 06:45:11;;;;;;;;;;;;;;;15.57;48.09;94264.25;4955390;28;19976;-76
2023/10/10 06:47:50;;;;;;;;;;;;;;;15.64;47.88;94269.88;4957389;28;20044;-77
2023/10/10 06:50:17;;;;;;;;;;;;;;;15.58;47.93;94281.91;4958787;28;19936;-77
2023/10/10 06:52:43;;;;;;;;;;;;;;;15.74;47.81;94277.47;4958180;28;19925;-76
2023/10/10 06:55:13;;;;;;;;;;;;;;;15.83;47.99;94278.94;4956494;28;19922;-76
2023/10/10 06:57:38;;;;;;;;;;;;;;;15.84;47.79;94282.41;4958392;28;19913;-77
2023/10/10 07:00:20;;;;;;;;;;;;;;;15.92;47.56;94291.44;4956558;28;20377;-76
2023/10/10 07:02:49;;;;;;;;;;;;;;;15.86;47.59;94288.19;4958983;28;19926;-79
2023/10/10 07:05:15;;;;;;;;;;;;;;;15.94;47.91;94292.66;4959234;28;19954;-76
2023/10/10 07:07:44;;;;;;;;;;;;;;;16.03;47.76;94293.38;4962596;28;19954;-78
2023/10/10 07:10:09;;;;;;;;;;;;;;;16.08;47.58;94295.81;4955928;28;19957;-78
2023/10/10 07:12:38;;;;;;;;;;;;;;;16.20;47.35;94285.06;4959777;28;19966;-77
2023/10/10 07:15:06;;;;;;;;;;;;;;;16.31;47.07;94278.16;4959194;28;20388;-76
2023/10/10 07:17:32;;;;;;;;;;;;;;;16.18;47.39;94284.63;4957125;28;19929;-77
2023/10/10 07:22:33;;;;;;;;;;;;;;;15.96;47.76;94282.41;4957998;28;19933;-80
2023/10/10 07:25:07;;;;;;;;;;;;;;;15.99;48.25;94289.00;4956694;28;19921;-80
2023/10/10 07:27:40;;;;;;;;;;;;;;;16.05;48.02;94293.00;4960116;28;19914;-78
2023/10/10 07:30:19;;;;;;;;;;;;;;;15.89;48.39;94299.03;4954667;28;20392;-78
2023/10/10 07:32:48;;;;;;;;;;;;;;;15.84;48.33;94293.13;4956841;28;19930;-78
2023/10/10 07:35:21;;;;;;;;;;;;;;;15.71;48.74;94280.81;4956661;28;19921;-78
2023/10/10 07:37:46;;;;;;;;;;;;;;;15.72;49.13;94285.06;4958846;28;20381;-77
2023/10/10 07:40:30;;;;;;;;;;;;;;;15.82;48.81;94290.00;4957466;28;19918;-77
2023/10/10 07:43:02;;;;;;;;;;;;;;;15.89;48.51;94292.88;4955996;28;19922;-78
2023/10/10 07:45:33;;;;;;;;;;;;;;;15.95;48.57;94304.19;4957209;28;19913;-78
2023/10/10 07:50:27;;;;;;;;;;;;;;;16.05;48.43;94304.53;4955152;28;19917;-77
2023/10/10 07:52:53;;;;;;;;;;;;;;;16.03;48.67;94306.00;4956649;28;20342;-78
2023/10/10 07:55:18;;;;;;;;;;;;;;;16.00;48.85;94301.28;4955664;28;19918;-77
2023/10/10 07:57:55;;;;;;;;;;;;;;;16.29;48.79;94303.75;4958046;28;19956;-77
2023/10/10 08:00:27;;;;;;;;;;;;;;;16.37;48.29;94304.78;4957113;28;19926;-77
2023/10/10 08:02:53;;;;;;;;;;;;;;;16.27;48.21;94304.09;4961795;28;19947;-78
2023/10/10 08:05:20;;;;;;;;;;;;;;;16.24;48.00;94288.63;4955118;28;19918;-77
2023/10/10 08:07:48;;;;;;;;;;;;;;;16.40;48.13;94296.03;4955786;28;20024;-78
2023/10/10 08:10:29;;;;;;;;;;;;;;;16.46;48.04;94292.78;4955935;28;20008;-78
2023/10/10 08:12:56;;;;;;;;;;;;;;;16.42;47.71;94299.19;4957452;28;19918;-75
2023/10/10 08:15:25;;;;;;;;;;;;;;;16.21;48.01;94302.75;4955674;28;20351;-77
2023/10/10 08:17:54;;;;;;;;;;;;;;;16.06;48.54;94316.84;4957374;28;20020;-77
2023/10/10 08:23:05;;;;;;;;;;;;;;;16.37;48.09;94320.88;4955616;28;20015;-77
2023/10/10 08:25:30;;;;;;;;;;;;;;;16.28;48.09;94321.75;4954339;28;19930;-79
2023/10/10 08:27:58;;;;;;;;;;;;;;;16.27;47.87;94309.47;4956257;28;19937;-77
2023/10/10 08:30:25;;;;;;;;;;;;;;;16.31;47.94;94312.28;4957294;28;19917;-77
2023/10/10 08:32:57;;;;;;;;;;;;;;;16.54;48.05;94304.53;4951557;28;20447;-77
2023/10/10 08:35:23;;;;;;;;;;;;;;;16.50;47.06;94282.94;4954164;28;20008;-78
2023/10/10 08:37:50;;;;;;;;;;;;;;;16.57;47.61;94310.03;4953642;28;19926;-78
2023/10/10 08:40:17;;;;;;;;;;;;;;;16.65;47.36;94314.47;4960486;28;19968;-78
2023/10/10 08:42:43;;;;;;;;;;;;;;;16.59;47.20;94317.72;4957391;28;19922;-78
2023/10/10 08:45:22;;;;;;;;;;;;;;;16.42;47.78;94317.97;4956152;28;20011;-78
2023/10/10 08:48:00;;;;;;;;;;;;;;;16.45;47.82;94323.44;4956163;28;19926;-77
2023/10/10 08:50:26;;;;;;;;;;;;;;;16.51;47.46;94321.31;4954817;28;20530;-78
2023/10/10 08:52:51;;;;;;;;;;;;;;;16.51;47.30;94326.69;4959987;28;20336;-77
2023/10/10 08:55:18;;;;;;;;;;;;;;;16.43;47.62;94319.53;4956931;28;20686;-78
2023/10/10 08:57:43;;;;;;;;;;;;;;;16.31;48.08;94315.75;4957252;28;20476;-77
2023/10/10 09:00:17;;;;;;;;;;;;;;;16.40;48.12;94325.56;4956692;28;19930;-75
2023/10/10 09:02:43;;;;;;;;;;;;;;;16.49;47.77;94312.81;4954156;28;20021;-79
2023/10/10 09:05:12;;;;;;;;;;;;;;;16.63;47.58;94318.59;4951892;28;19929;-79
2023/10/10 09:07:42;;;;;;;;;;;;;;;16.72;47.63;94328.09;4959343;28;19963;-78
2023/10/10 09:10:13;;;;;;;;;;;;;;;16.78;47.20;94331.31;4956557;28;19983;-79
2023/10/10 09:12:58;;;;;;;;;;;;;;;16.79;47.11;94327.53;4960689;28;20423;-78
2023/10/10 09:15:27;;;;;;;;;;;;;;;16.70;47.02;94333.03;4954628;28;20336;-78
2023/10/10 09:17:59;;;;;;;;;;;;;;;16.70;47.09;94329.56;4957907;28;19937;-78
2023/10/10 09:20:29;;;;;;;;;;;;;;;16.71;47.01;94326.56;4943316;28;20531;-76
2023/10/10 09:23:02;;;;;;;;;;;;;;;16.91;46.91;94326.72;4954413;28;19952;-79
2023/10/10 09:25:48;;;;;;;;;;;;;;;16.78;46.87;94328.66;4956152;28;19922;-79
2023/10/10 09:28:16;;;;;;;;;;;;;;;17.02;46.72;94328.56;4956202;28;20368;-79
2023/10/10 09:30:58;;;;;;;;;;;;;;;16.93;46.64;94317.19;4957024;28;20444;-77
2023/10/10 09:35:58;;;;;;;;;;;;;;;17.01;46.50;94324.31;4954819;28;20028;-78
2023/10/10 09:38:26;;;;;;;;;;;;;;;17.04;46.60;94329.03;4955295;28;19949;-79
2023/10/10 09:41:10;;;;;;;;;;;;;;;17.06;46.37;94332.16;4953871;28;20363;-79
2023/10/10 09:43:48;;;;;;;;;;;;;;;17.12;46.39;94320.03;4955266;28;19929;-78
2023/10/10 09:46:19;;;;;;;;;;;;;;;17.15;46.52;94322.09;4952034;28;19965;-79
2023/10/10 09:49:17;;;;;;;;;;;;;;;17.04;46.61;94312.91;4953441;28;19918;-74
2023/10/10 09:54:18;;;;;;;;;;;;;;;16.86;46.95;94316.22;4959143;28;19928;-73
2023/10/10 09:56:47;;;;;;;;;;;;;;;16.93;46.72;94301.06;4954463;28;20480;-73
2023/10/10 09:59:19;;;;;;;;;;;;;;;16.84;46.54;94308.50;4955704;28;19918;-73
2023/10/10 10:01:46;;;;;;;;;;;;;;;16.73;46.83;94307.38;4960556;28;20450;-73
2023/10/10 10:04:18;;;;;;;;;;;;;;;16.63;47.42;94297.91;4954963;28;19922;-73
2023/10/10 10:06:53;;;;;;;;;;;;;;;16.73;47.44;94302.03;4955160;28;19918;-73
2023/10/10 10:09:36;;;;;;;;;;;;;;;16.79;47.71;94306.03;4952400;28;19977;-73
2023/10/10 10:12:23;;;;;;;;;;;;;;;16.44;47.82;94308.44;4951855;28;19960;-73
2023/10/10 10:15:04;;;;;;;;;;;;;;;16.55;47.48;94309.56;4953268;28;20542;-73
2023/10/10 10:17:46;;;;;;;;;;;;;;;16.51;47.92;94305.22;4952711;28;19933;-73
2023/10/10 10:20:20;;;;;;;;;;;;;;;16.59;47.95;94306.97;4935181;28;19926;-73
2023/10/10 10:22:48;;;;;;;;;;;;;;;16.58;47.45;94303.50;4950581;28;19930;-74
2023/10/10 10:25:25;;;;;;;;;;;;;;;16.58;48.00;94300.81;4952206;28;19970;-73
2023/10/10 10:27:59;;;;;;;;;;;;;;;16.72;47.62;94295.09;4956724;28;19924;-74
2023/10/10 10:32:55;;;;;;;;;;;;;;;16.81;47.24;94295.75;4952717;28;19922;-73
2023/10/10 10:35:44;;;;;;;;;;;;;;;16.75;47.19;94297.09;4931070;28;19934;-73
2023/10/10 10:38:09;;;;;;;;;;;;;;;16.80;47.42;94291.50;4952820;28;19922;-75
2023/10/10 10:43:16;;;;;;;;;;;;;;;17.02;46.46;94280.22;4960329;28;19929;-74
2023/10/10 10:45:45;;;;;;;;;;;;;;;17.08;46.67;94283.44;4954285;28;20305;-74
2023/10/10 10:48:33;;;;;;;;;;;;;;;17.10;46.48;94281.19;4954235;28;19922;-73
2023/10/10 10:51:25;;;;;;;;;;;;;;;17.10;46.27;94278.50;4953320;28;19922;-73
2023/10/10 10:53:51;;;;;;;;;;;;;;;17.11;46.11;94280.84;4953761;28;19930;-74
2023/10/10 11:01:17;;;;;;;;;;;;;;;16.98;46.23;94276.66;4963649;28;19922;-74
2023/10/10 11:03:43;;;;;;;;;;;;;;;16.94;45.95;94281.16;4956642;28;20015;-74
2023/10/10 11:06:14;;;;;;;;;;;;;;;17.08;46.05;94270.00;4955960;28;19919;-75
2023/10/10 11:11:25;;;;;;;;;;;;;;;17.37;45.19;94276.94;4959947;28;20291;-73
2023/10/10 11:13:54;;;;;;;;;;;;;;;17.39;44.80;94280.09;4950627;28;19925;-74
2023/10/10 11:16:24;;;;;;;;;;;;;;;17.55;44.72;94283.59;4957799;28;19922;-74
2023/10/10 11:18:57;;;;;;;;;;;;;;;17.32;44.40;94277.19;4956810;28;19961;-74
2023/10/10 11:21:28;;;;;;;;;;;;;;;17.50;44.31;94281.16;4956905;28;19914;-73
2023/10/10 11:23:57;;;;;;;;;;;;;;;17.60;44.25;94275.25;4956650;28;20313;-73
2023/10/10 11:26:22;;;;;;;;;;;;;;;17.59;43.91;94276.38;4958820;28;20344;-74
2023/10/10 11:28:48;;;;;;;;;;;;;;;17.68;44.05;94270.84;4955355;28;19922;-74
2023/10/10 11:31:16;;;;;;;;;;;;;;;17.83;43.92;94278.13;4958942;28;20509;-74
2023/10/10 11:34:09;;;;;;;;;;;;;;;17.87;43.48;94269.00;4947614;28;19917;-74
2023/10/10 11:36:40;;;;;;;;;;;;;;;17.66;43.60;94273.88;4954860;28;19914;-73
2023/10/10 11:39:24;;;;;;;;;;;;;;;17.60;44.04;94272.53;4960445;28;20027;-74
2023/10/10 11:41:50;;;;;;;;;;;;;;;17.58;44.22;94275.59;4948149;28;20547;-73
2023/10/10 11:44:21;;;;;;;;;;;;;;;17.55;44.37;94273.59;4956358;28;20321;-74
2023/10/10 11:46:48;;;;;;;;;;;;;;;17.64;44.09;94269.97;4955004;28;20492;-74
2023/10/10 11:49:17;;;;;;;;;;;;;;;17.66;44.06;94265.78;4954217;28;20079;-74
2023/10/10 11:51:42;;;;;;;;;;;;;;;17.71;43.78;94278.97;4957128;28;20109;-74
2023/10/10 11:54:07;;;;;;;;;;;;;;;17.79;43.91;94277.28;4953235;28;19934;-73
2023/10/10 11:56:34;;;;;;;;;;;;;;;17.78;43.85;94265.72;4955108;28;19918;-74
2023/10/10 11:59:14;;;;;;;;;;;;;;;17.82;43.88;94271.19;4959101;28;19918;-74
2023/10/10 12:01:54;;;;;;;;;;;;;;;17.94;43.48;94266.50;5037593;28;20309;-74
2023/10/10 12:04:32;;;;;;;;;;;;;;;18.03;43.52;94269.03;4947464;28;19926;-74
2023/10/10 12:06:59;;;;;;;;;;;;;;;18.11;43.15;94269.97;4958385;28;19933;-74
2023/10/10 12:09:26;;;;;;;;;;;;;;;18.20;42.93;94270.56;4956137;28;19992;-74
2023/10/10 12:11:58;;;;;;;;;;;;;;;18.27;42.86;94270.75;4957513;28;19924;-74
2023/10/10 12:14:24;;;;;;;;;;;;;;;18.37;42.53;94259.44;4956509;28;19918;-74
2023/10/10 12:16:53;;;;;;;;;;;;;;;18.44;42.51;94262.28;4956426;28;20370;-74
2023/10/10 12:19:18;;;;;;;;;;;;;;;18.52;42.43;94260.53;4946430;28;19921;-74
2023/10/10 12:21:44;;;;;;;;;;;;;;;18.53;41.98;94264.78;4956115;28;19920;-74
2023/10/10 12:24:09;;;;;;;;;;;;;;;18.61;41.87;94259.19;4958807;28;20063;-74
2023/10/10 12:26:39;;;;;;;;;;;;;;;18.68;41.89;94270.09;4953695;28;19918;-73
2023/10/10 12:29:04;;;;;;;;;;;;;;;18.69;41.70;94263.59;4956442;28;19918;-74
2023/10/10 12:31:34;;;;;;;;;;;;;;;18.72;41.50;94271.00;4953874;28;19928;-74
2023/10/10 12:34:00;;;;;;;;;;;;;;;18.78;41.69;94269.59;4957305;28;20001;-74
2023/10/10 12:36:32;;;;;;;;;;;;;;;18.78;41.50;94269.59;4955604;28;19917;-74
2023/10/10 12:38:59;;;;;;;;;;;;;;;18.80;41.32;94274.63;4957809;28;20487;-74
2023/10/10 12:41:25;;;;;;;;;;;;;;;18.78;41.12;94272.28;4958482;28;20305;-74
2023/10/10 12:43:50;;;;;;;;;;;;;;;18.75;41.33;94269.50;4959186;28;19938;-74
2023/10/10 12:46:16;;;;;;;;;;;;;;;18.67;41.17;94273.97;4955385;28;20622;-73
2023/10/10 12:48:42;;;;;;;;;;;;;;;18.73;41.52;94269.06;4955978;28;19945;-73
2023/10/10 12:51:11;;;;;;;;;;;;;;;18.64;41.17;94269.25;4959781;28;20005;-74
2023/10/10 12:53:40;;;;;;;;;;;;;;;18.62;41.35;94276.16;4956131;28;19922;-74
2023/10/10 12:56:06;;;;;;;;;;;;;;;18.64;41.09;94273.84;4955115;28;19926;-74
2023/10/10 12:58:32;;;;;;;;;;;;;;;18.52;41.25;94272.09;4956902;28;20038;-75
2023/10/10 13:00:58;;;;;;;;;;;;;;;18.41;41.32;94273.75;4955389;28;20362;-74
2023/10/10 13:03:27;;;;;;;;;;;;;;;18.39;41.93;94267.94;4958105;28;19926;-74
2023/10/10 13:05:58;;;;;;;;;;;;;;;18.48;41.54;94265.81;4956491;28;19979;-74
2023/10/10 13:08:24;;;;;;;;;;;;;;;18.30;41.55;94270.03;4955164;28;19929;-74
2023/10/10 13:10:54;;;;;;;;;;;;;;;18.01;42.13;94263.22;4957770;28;19922;-74
2023/10/10 13:13:26;;;;;;;;;;;;;;;17.84;42.74;94269.72;4951624;28;19922;-74
2023/10/10 13:16:07;;;;;;;;;;;;;;;17.97;42.56;94271.22;4954278;28;19914;-74
2023/10/10 13:18:32;;;;;;;;;;;;;;;18.17;42.22;94263.22;4958511;28;19921;-74
2023/10/10 13:21:00;;;;;;;;;;;;;;;18.20;42.11;94259.81;4956669;28;20291;-74
2023/10/10 13:23:25;;;;;;;;;;;;;;;18.36;41.87;94260.56;4954511;28;19926;-74
2023/10/10 13:25:51;;;;;;;;;;;;;;;18.44;41.87;94256.88;4954962;28;19922;-74
2023/10/10 13:28:20;;;;;;;;;;;;;;;18.51;41.71;94262.44;4953795;28;20044;-74
2023/10/10 13:30:49;;;;;;;;;;;;;;;18.60;41.59;94263.00;4960593;28;20385;-74
2023/10/10 13:33:14;;;;;;;;;;;;;;;18.47;41.97;94264.28;4954871;28;20336;-74
2023/10/10 13:35:40;;;;;;;;;;;;;;;18.34;42.13;94262.81;4970475;28;19925;-74
2023/10/10 13:38:07;;;;;;;;;;;;;;;18.38;42.08;94266.38;4955350;28;20012;-72
2023/10/10 13:40:43;;;;;;;;;;;;;;;18.21;42.44;94262.16;4955752;28;20395;-72
2023/10/10 13:43:09;;;;;;;;;;;;;;;18.26;42.53;94263.78;4955389;28;20031;-73
2023/10/10 13:45:35;;;;;;;;;;;;;;;18.34;42.50;94265.50;4955578;28;19932;-73
2023/10/10 13:48:01;;;;;;;;;;;;;;;18.36;42.48;94263.25;4954820;28;20424;-73
2023/10/10 13:50:31;;;;;;;;;;;;;;;18.24;42.57;94274.13;4957121;28;20066;-73
2023/10/10 13:52:56;;;;;;;;;;;;;;;18.19;42.58;94269.78;4954747;28;19933;-73
2023/10/10 13:55:23;;;;;;;;;;;;;;;18.23;42.47;94264.50;4953606;28;19918;-73
2023/10/10 13:57:49;;;;;;;;;;;;;;;18.25;42.80;94271.09;4957748;28;19922;-74
2023/10/10 14:00:52;;;;;;;;;;;;;;;18.26;42.52;94275.34;4958880;28;19920;-75
2023/10/10 14:03:06;;;;;;;;;;;;;;;18.31;42.53;94264.31;4959906;28;19936;-74
2023/10/10 14:05:33;;;;;;;;;;;;;;;18.17;42.55;94272.06;4958731;28;19922;-74
2023/10/10 14:08:00;;;;;;;;;;;;;;;18.09;42.84;94280.34;4956936;28;19922;-74
2023/10/10 14:10:33;;;;;;;;;;;;;;;18.17;43.04;94269.38;4958146;28;20005;-75
2023/10/10 14:13:11;;;;;;;;;;;;;;;18.25;42.75;94263.00;4954707;28;20462;-74
2023/10/10 14:15:36;;;;;;;;;;;;;;;18.08;43.00;94273.38;4960202;28;20366;-74
2023/10/10 14:18:01;;;;;;;;;;;;;;;18.16;42.93;94275.88;4956271;28;19921;-75
2023/10/10 14:20:27;;;;;;;;;;;;;;;18.19;43.14;94282.47;4956039;28;19942;-74
2023/10/10 14:22:52;;;;;;;;;;;;;;;18.02;43.26;94281.72;4953168;28;19926;-75
2023/10/10 14:25:17;;;;;;;;;;;;;;;18.13;43.24;94286.56;4952875;28;19925;-74
2023/10/10 14:27:43;;;;;;;;;;;;;;;18.08;43.45;94293.00;4955115;28;19921;-75
2023/10/10 14:30:20;;;;;;;;;;;;;;;18.13;43.35;94295.44;4953055;28;19930;-76
2023/10/10 14:32:46;;;;;;;;;;;;;;;18.06;43.39;94289.09;4953771;28;19945;-77
2023/10/10 14:35:12;;;;;;;;;;;;;;;18.25;43.15;94287.25;4958131;28;20040;-79
2023/10/10 14:37:39;;;;;;;;;;;;;;;18.17;43.05;94292.81;4955044;28;19975;-76
2023/10/10 14:40:09;;;;;;;;;;;;;;;18.10;43.43;94301.50;4955382;28;19914;-79
2023/10/10 14:42:34;;;;;;;;;;;;;;;18.22;43.16;94306.00;4957061;28;19922;-78
2023/10/10 14:45:00;;;;;;;;;;;;;;;18.24;42.93;94306.44;4958446;28;20886;-77
2023/10/10 14:47:25;;;;;;;;;;;;;;;18.32;43.06;94308.97;4955227;28;20433;-79
2023/10/10 14:49:56;;;;;;;;;;;;;;;18.42;42.69;94304.94;4960098;28;20386;-80
2023/10/10 14:52:21;;;;;;;;;;;;;;;18.38;42.67;94312.16;4955840;28;20007;-80
2023/10/10 14:54:48;;;;;;;;;;;;;;;18.17;43.00;94300.91;4960405;28;20059;-74
2023/10/10 14:57:23;;;;;;;;;;;;;;;18.27;42.87;94311.13;4957258;28;19944;-72
2023/10/10 14:59:49;;;;;;;;;;;;;;;18.26;43.12;94318.41;4958394;28;19922;-74
2023/10/10 15:02:16;;;;;;;;;;;;;;;18.24;43.11;94322.59;4952031;28;19922;-72
2023/10/10 15:04:41;;;;;;;;;;;;;;;18.26;43.17;94323.81;4959117;28;19925;-74
2023/10/10 15:07:07;;;;;;;;;;;;;;;18.24;43.26;94326.06;4952433;28;20435;-75
2023/10/10 15:09:35;;;;;;;;;;;;;;;18.30;43.06;94330.06;4957847;28;19945;-75
2023/10/10 15:12:01;;;;;;;;;;;;;;;18.39;42.81;94337.94;4956283;28;19961;-74
2023/10/10 15:14:26;;;;;;;;;;;;;;;18.34;42.84;94335.50;4957265;28;20382;-73
2023/10/10 15:16:52;;;;;;;;;;;;;;;18.28;43.19;94337.72;4955769;28;19922;-72
2023/10/10 15:19:17;;;;;;;;;;;;;;;18.25;43.09;94343.00;4956182;28;19932;-73
2023/10/10 15:21:47;;;;;;;;;;;;;;;18.32;43.30;94349.34;4958314;28;20377;-73
2023/10/10 15:24:12;;;;;;;;;;;;;;;18.43;42.91;94349.59;4955347;28;19983;-75
2023/10/10 15:26:45;;;;;;;;;;;;;;;18.39;42.93;94348.72;4951691;28;19926;-73
2023/10/10 15:29:12;;;;;;;;;;;;;;;18.55;42.77;94354.09;4956626;28;19948;-75
2023/10/10 15:31:39;;;;;;;;;;;;;;;18.62;42.59;94365.03;4956321;28;20043;-74
2023/10/10 15:34:06;;;;;;;;;;;;;;;18.69;42.39;94362.50;4956902;28;20389;-79
2023/10/10 15:36:32;;;;;;;;;;;;;;;18.72;42.42;94359.94;4960189;28;19961;-78